Hovedside
METAR-TAF:

METAR-TAF

Lufthavner :

Oslo, Norge

Oslo lufthavn

breddegrad: 60-12N, lengdegrad: 011-05E, høyde over havet: 208 m

Gjeldene værobservasjon

Denne rapporten ble laget for 22 minutter siden, klokken 19:50 UTC
Vind 2 kt fra skiftende retning
Temperatur 16°C
Luftfuktighet 77%
Trykk 1006 hPa
Sikt 10 km eller mer
ingen skyer under 1500 m og ingen bygeskyer

METAR: ENGM 281950Z VRB02KT CAVOK 16/12 Q1006 NOSIG

Tid: 22:12 (20:12 UTC)

Varsel

Varsel gyldig fra 28. klokken 18 UTC til 29. klokken 18 UTC
Vind 10 kt fra Sør
Sikt 10 km eller mer
Spredte skyer i en høyde av 3000 ft
Blir
fra 28. klokken 19 UTC til 28. klokken 21 UTC
Vind 5 kt fra skiftende retning
Blir
fra 29. klokken 09 UTC til 29. klokken 11 UTC
Vind 10 kt fra Nord

TAF: ENGM 2818/2918 19010KT 9999 SCT030 BECMG 2819/2821 VRB05KT BECMG 2909/2911 01010KT

Værobservasjoner og værvarsel for over 4000 flyplasser (METAR- og TAF-rapporter).

Tilgjengelige stasjoner er representert av de røde og gule prikkene på kartet.

Hold musepekeren over prikken for å se navnet på stasjonen.

Klikk så for å se værobservasjoner og -varsler.

For å forandre kartet kan du klikke på den grønne knappen med svart kryss for å zoome inn, på den grønne knappen med strek for å zoome ut, eller på de grønne pilene for å se tilstøtende kart.


METAR-TAF: